createdAt,value
2018-11-07T00:02:04.120Z,99063.06
2018-11-07T00:04:32.659Z,99063.98
2018-11-07T00:07:01.232Z,99063.11
2018-11-07T00:09:29.779Z,99065.74
2018-11-07T00:11:58.482Z,99054.75
2018-11-07T00:14:26.970Z,99053.44
2018-11-07T00:16:55.601Z,99064.08
2018-11-07T00:19:24.171Z,99064.20
2018-11-07T00:21:52.770Z,99060.78
2018-11-07T00:24:21.422Z,99069.61
2018-11-07T00:26:49.975Z,99084.63
2018-11-07T00:29:18.536Z,99082.05
2018-11-07T00:31:47.177Z,99078.97
2018-11-07T00:34:15.783Z,99081.66
2018-11-07T00:36:44.361Z,99092.20
2018-11-07T00:39:13.323Z,99087.14
2018-11-07T00:41:41.889Z,99097.99
2018-11-07T00:44:10.589Z,99086.75
2018-11-07T00:46:39.086Z,99081.60
2018-11-07T00:49:07.622Z,99078.17
2018-11-07T00:51:36.273Z,99083.48
2018-11-07T00:54:05.029Z,99084.36
2018-11-07T00:56:33.646Z,99082.69
2018-11-07T00:59:02.282Z,99078.17
2018-11-07T01:01:30.933Z,99079.48
2018-11-07T01:03:59.604Z,99076.33
2018-11-07T01:06:28.134Z,98794.55
2018-11-07T01:08:56.642Z,99083.62
2018-11-07T01:11:25.233Z,99088.98
2018-11-07T01:13:53.869Z,99090.04
2018-11-07T01:16:22.464Z,99084.11
2018-11-07T01:18:50.949Z,99085.83
2018-11-07T01:21:19.510Z,99085.42
2018-11-07T01:23:47.980Z,99093.64
2018-11-07T01:26:16.584Z,99091.97
2018-11-07T01:28:45.215Z,99095.40
2018-11-07T01:31:13.813Z,99094.56
2018-11-07T01:33:42.600Z,99084.34
2018-11-07T01:36:11.321Z,99064.08
2018-11-07T01:38:39.911Z,99080.21
2018-11-07T01:41:08.496Z,99087.72
2018-11-07T01:43:37.087Z,99055.06
2018-11-07T01:46:05.680Z,99082.17
2018-11-07T01:48:34.205Z,99080.98
2018-11-07T01:51:02.720Z,99079.44
2018-11-07T01:53:31.298Z,99086.69
2018-11-07T01:55:59.911Z,99084.39
2018-11-07T01:58:28.460Z,99084.63
2018-11-07T02:00:57.047Z,99077.86
2018-11-07T02:03:25.660Z,99080.02
2018-11-07T02:05:54.211Z,99071.32
2018-11-07T02:08:26.420Z,99073.20
2018-11-07T02:10:54.936Z,99082.22
2018-11-07T02:13:23.461Z,99077.55
2018-11-07T02:15:51.947Z,99078.59
2018-11-07T02:18:20.547Z,99087.84
2018-11-07T02:20:49.096Z,99075.23
2018-11-07T02:23:17.640Z,99075.35
2018-11-07T02:25:46.368Z,99064.98
2018-11-07T02:28:14.948Z,99066.30
2018-11-07T02:30:43.464Z,99070.44
2018-11-07T02:33:12.592Z,99067.52
2018-11-07T02:35:41.129Z,99064.48
2018-11-07T02:38:09.716Z,99068.04
2018-11-07T02:40:38.256Z,99059.74
2018-11-07T02:43:06.801Z,99065.16
2018-11-07T02:45:35.353Z,99067.28
2018-11-07T02:48:03.951Z,99062.09
2018-11-07T02:50:32.719Z,99058.23
2018-11-07T02:53:01.283Z,99066.52
2018-11-07T02:55:29.898Z,99086.33
2018-11-07T02:57:58.520Z,99078.84
2018-11-07T03:00:27.273Z,99088.45
2018-11-07T03:02:55.947Z,99086.73
2018-11-07T03:05:24.585Z,99081.34
2018-11-07T03:07:53.153Z,99086.84
2018-11-07T03:10:21.734Z,99089.15
2018-11-07T03:12:50.221Z,99087.80
2018-11-07T03:15:18.847Z,99080.74
2018-11-07T03:17:47.355Z,99087.72
2018-11-07T03:20:15.853Z,99078.52
2018-11-07T03:22:44.442Z,99074.64
2018-11-07T03:25:13.045Z,99077.63
2018-11-07T03:27:41.629Z,99084.25
2018-11-07T03:30:10.649Z,99086.00
2018-11-07T03:32:39.296Z,99085.71
2018-11-07T03:35:12.001Z,99082.68
2018-11-07T03:37:40.587Z,99083.23
2018-11-07T03:40:09.156Z,99078.52
2018-11-07T03:42:37.805Z,99065.63
2018-11-07T03:45:06.395Z,99076.19
2018-11-07T03:47:34.993Z,99055.30
2018-11-07T03:50:03.556Z,99062.52
2018-11-07T03:52:32.906Z,99054.64
2018-11-07T03:55:01.388Z,99049.13
2018-11-07T03:57:30.025Z,99055.73
2018-11-07T03:59:58.460Z,99055.03
2018-11-07T04:02:27.039Z,99052.84
2018-11-07T04:04:55.588Z,99060.77
2018-11-07T04:07:24.136Z,99064.41
2018-11-07T04:09:52.718Z,99068.36
2018-11-07T04:12:21.267Z,99055.05
2018-11-07T04:14:49.814Z,99051.25
2018-11-07T04:17:18.348Z,99052.13
2018-11-07T04:19:46.923Z,99047.89
2018-11-07T04:22:15.480Z,98929.23
2018-11-07T04:24:43.976Z,99065.52
2018-11-07T04:27:12.512Z,99059.48
2018-11-07T04:29:41.047Z,99052.00
2018-11-07T04:32:09.644Z,99056.35
2018-11-07T04:34:38.151Z,99063.56
2018-11-07T04:37:06.587Z,99056.59
2018-11-07T04:39:35.130Z,99051.73
2018-11-07T04:42:03.639Z,99050.09
2018-11-07T04:44:32.142Z,99043.09
2018-11-07T04:47:00.619Z,99045.81
2018-11-07T04:49:29.225Z,99042.48
2018-11-07T04:51:57.791Z,99040.83
2018-11-07T04:54:26.324Z,99042.55
2018-11-07T04:56:54.891Z,99053.16
2018-11-07T04:59:23.477Z,99058.51
2018-11-07T05:01:52.010Z,99053.73
2018-11-07T05:04:20.566Z,99045.81
2018-11-07T05:06:49.088Z,99056.35
2018-11-07T05:09:17.609Z,99056.42
2018-11-07T05:11:46.153Z,99071.77
2018-11-07T05:14:14.688Z,99057.83
2018-11-07T05:16:43.207Z,99050.02
2018-11-07T05:19:11.720Z,99045.64
2018-11-07T05:21:40.186Z,99042.64
2018-11-07T05:24:08.871Z,99047.59
2018-11-07T05:26:37.399Z,99043.17
2018-11-07T05:29:06.079Z,99044.99
2018-11-07T05:31:34.604Z,99046.71
2018-11-07T05:34:03.164Z,99060.34
2018-11-07T05:36:31.661Z,99063.24
2018-11-07T05:39:00.277Z,99065.19
2018-11-07T05:41:28.834Z,99050.78
2018-11-07T05:43:57.309Z,99065.19
2018-11-07T05:46:25.832Z,99075.19
2018-11-07T05:48:54.452Z,99068.19
2018-11-07T05:51:23.003Z,99072.47
2018-11-07T05:53:51.549Z,99080.72
2018-11-07T05:56:20.067Z,99060.62
2018-11-07T05:58:48.648Z,99062.80
2018-11-07T06:01:17.312Z,99059.80
2018-11-07T06:03:45.810Z,99054.52
2018-11-07T06:06:14.339Z,99052.50
2018-11-07T06:08:43.416Z,99060.72
2018-11-07T06:11:11.916Z,99061.56
2018-11-07T06:13:40.553Z,99062.53
2018-11-07T06:16:09.199Z,99064.55
2018-11-07T06:18:37.705Z,99075.03
2018-11-07T06:21:06.265Z,99076.47
2018-11-07T06:23:34.861Z,99080.22
2018-11-07T06:26:03.533Z,99077.59
2018-11-07T06:28:32.159Z,99074.16
2018-11-07T06:31:00.686Z,99072.41
2018-11-07T06:33:29.240Z,99072.94
2018-11-07T06:35:57.854Z,99077.28
2018-11-07T06:38:26.386Z,99077.19
2018-11-07T06:40:54.949Z,99082.91
2018-11-07T06:43:23.641Z,99079.78
2018-11-07T06:45:52.170Z,99081.97
2018-11-07T06:48:20.749Z,99095.44
2018-11-07T06:50:49.567Z,99102.50
2018-11-07T06:53:18.255Z,99115.51
2018-11-07T06:55:46.908Z,99103.47
2018-11-07T06:58:15.443Z,99101.34
2018-11-07T07:00:44.065Z,99103.88
2018-11-07T07:03:12.724Z,99098.72
2018-11-07T07:05:41.289Z,99095.08
2018-11-07T07:08:09.882Z,99093.46
2018-11-07T07:10:38.527Z,99096.36
2018-11-07T07:13:07.196Z,99098.48
2018-11-07T07:15:35.778Z,99100.30
2018-11-07T07:18:04.514Z,99105.60
2018-11-07T07:20:33.149Z,99095.46
2018-11-07T07:23:01.807Z,99100.70
2018-11-07T07:25:30.528Z,99089.95
2018-11-07T07:27:59.102Z,99092.98
2018-11-07T07:30:27.847Z,99098.53
2018-11-07T07:32:56.410Z,99101.94
2018-11-07T07:35:25.057Z,99103.38
2018-11-07T07:37:53.644Z,99101.63
2018-11-07T07:40:22.206Z,99110.22
2018-11-07T07:42:50.761Z,99111.84
2018-11-07T07:45:20.264Z,99116.70
2018-11-07T07:47:48.827Z,99112.92
2018-11-07T07:50:21.840Z,99117.37
2018-11-07T07:52:50.435Z,99107.50
2018-11-07T07:55:19.025Z,99107.77
2018-11-07T07:57:47.747Z,99105.89
2018-11-07T08:00:17.644Z,99102.25
2018-11-07T08:02:49.407Z,99109.39
2018-11-07T08:05:18.111Z,99120.02
2018-11-07T08:07:47.148Z,99128.47
2018-11-07T08:10:18.124Z,99113.05
2018-11-07T08:12:47.158Z,99111.48
2018-11-07T08:15:16.356Z,99116.58
2018-11-07T08:17:45.403Z,99109.37
2018-11-07T08:20:15.061Z,99109.10
2018-11-07T08:22:44.612Z,99118.22
2018-11-07T08:25:13.360Z,99107.93
2018-11-07T08:27:42.052Z,99114.58
2018-11-07T08:30:13.898Z,99119.80
2018-11-07T08:32:43.004Z,99117.71
2018-11-07T08:35:13.275Z,99112.47
2018-11-07T08:37:43.094Z,99101.91
2018-11-07T08:40:17.762Z,99136.94
2018-11-07T08:42:46.487Z,99102.42
2018-11-07T08:45:15.299Z,99105.39
2018-11-07T08:47:45.657Z,99110.92
2018-11-07T08:50:16.168Z,99074.25
2018-11-07T08:52:45.821Z,99106.13
2018-11-07T08:55:16.880Z,99113.59
2018-11-07T08:57:45.521Z,99125.13
2018-11-07T09:00:18.250Z,99116.03
2018-11-07T09:02:47.595Z,99116.87
2018-11-07T09:05:17.073Z,99107.01
2018-11-07T09:07:50.326Z,99110.41
2018-11-07T09:10:22.338Z,99113.53
2018-11-07T09:12:54.271Z,99116.01
2018-11-07T09:15:25.233Z,99109.26
2018-11-07T09:17:54.567Z,99124.20
2018-11-07T09:20:24.213Z,99128.43
2018-11-07T09:22:53.537Z,99112.33
2018-11-07T09:25:22.363Z,99118.91
2018-11-07T09:27:51.384Z,99131.59
2018-11-07T09:30:22.461Z,99118.61
2018-11-07T09:32:52.726Z,99115.88
2018-11-07T09:35:22.498Z,99117.91
2018-11-07T09:37:51.252Z,99116.16
2018-11-07T09:40:21.101Z,99126.47
2018-11-07T09:42:50.801Z,99118.31
2018-11-07T09:45:21.001Z,99118.25
2018-11-07T09:47:49.582Z,99116.45
2018-11-07T09:50:19.139Z,99119.42
2018-11-07T09:52:47.961Z,99110.97
2018-11-07T09:55:20.772Z,99121.01
2018-11-07T09:57:49.482Z,99106.23
2018-11-07T10:00:19.380Z,99110.93
2018-11-07T10:02:48.408Z,99109.80
2018-11-07T10:05:19.086Z,99110.23
2018-11-07T10:07:48.318Z,99118.44
2018-11-07T10:10:19.299Z,99107.12
2018-11-07T10:12:48.429Z,99114.11
2018-11-07T10:15:17.339Z,99104.09
2018-11-07T10:17:46.061Z,99106.03
2018-11-07T10:20:18.239Z,99110.55
2018-11-07T10:22:47.529Z,99099.50
2018-11-07T10:25:16.766Z,99096.06
2018-11-07T10:27:45.870Z,99101.53
2018-11-07T10:30:15.915Z,99095.60
2018-11-07T10:32:47.604Z,99095.77
2018-11-07T10:35:16.993Z,99102.43
2018-11-07T10:37:46.383Z,99097.00
2018-11-07T10:40:19.630Z,99092.34
2018-11-07T10:42:49.233Z,99092.16
2018-11-07T10:45:18.451Z,99099.23
2018-11-07T10:47:48.536Z,99101.65
2018-11-07T10:50:18.984Z,99085.58
2018-11-07T10:52:48.428Z,99087.59
2018-11-07T10:55:17.864Z,99086.53
2018-11-07T10:57:47.078Z,99086.64
2018-11-07T11:00:21.843Z,99077.97
2018-11-07T11:02:57.861Z,99091.30
2018-11-07T11:05:27.649Z,99079.61
2018-11-07T11:07:56.687Z,99072.17
2018-11-07T11:10:25.749Z,99071.69
2018-11-07T11:12:55.188Z,99083.45
2018-11-07T11:15:23.941Z,99072.05
2018-11-07T11:17:52.760Z,99072.71
2018-11-07T11:20:21.696Z,99077.77
2018-11-07T11:22:50.450Z,99084.21
2018-11-07T11:25:19.258Z,99076.16
2018-11-07T11:27:48.297Z,99078.90
2018-11-07T11:30:17.362Z,99073.59
2018-11-07T11:32:46.760Z,99079.53
2018-11-07T11:35:15.738Z,99073.88
2018-11-07T11:37:44.290Z,99066.58
2018-11-07T11:40:15.618Z,99054.58
2018-11-07T11:42:45.866Z,99066.73
2018-11-07T11:45:15.775Z,99051.81
2018-11-07T11:47:44.804Z,99047.78
2018-11-07T11:50:15.127Z,99060.60
2018-11-07T11:52:45.336Z,99054.71
2018-11-07T11:55:14.058Z,99055.98
2018-11-07T11:57:43.231Z,99056.75
2018-11-07T12:00:14.135Z,99058.41
2018-11-07T12:02:43.039Z,99047.73
2018-11-07T12:05:13.474Z,99059.75
2018-11-07T12:07:42.364Z,99067.02
2018-11-07T12:10:19.988Z,99049.27
2018-11-07T12:12:49.709Z,99052.16
2018-11-07T12:15:19.494Z,99055.03
2018-11-07T12:17:48.220Z,99064.70
2018-11-07T12:20:16.857Z,99066.91
2018-11-07T12:22:45.812Z,99062.56
2018-11-07T12:25:15.117Z,99051.03
2018-11-07T12:27:44.462Z,99060.89
2018-11-07T12:30:17.102Z,99057.48
2018-11-07T12:32:46.973Z,99055.49
2018-11-07T12:35:20.155Z,99039.27
2018-11-07T12:37:49.011Z,99050.52
2018-11-07T12:40:19.212Z,99053.47
2018-11-07T12:42:47.994Z,99060.42
2018-11-07T12:45:17.253Z,99055.30
2018-11-07T12:47:45.980Z,99045.77
2018-11-07T12:50:19.347Z,99047.35
2018-11-07T12:52:48.113Z,99038.34
2018-11-07T12:55:17.216Z,99056.53
2018-11-07T12:57:46.004Z,99044.58
2018-11-07T13:00:21.623Z,99050.27
2018-11-07T13:02:50.492Z,99057.81
2018-11-07T13:05:22.506Z,99045.00
2018-11-07T13:07:52.155Z,99021.81
2018-11-07T13:10:21.616Z,99046.07
2018-11-07T13:12:50.757Z,99045.89
2018-11-07T13:15:19.374Z,99047.90
2018-11-07T13:17:48.946Z,99043.47
2018-11-07T13:20:25.241Z,99049.02
2018-11-07T13:22:54.600Z,99050.66
2018-11-07T13:25:24.027Z,99055.17
2018-11-07T13:27:52.617Z,99051.50
2018-11-07T13:30:22.106Z,99050.25
2018-11-07T13:32:50.811Z,99053.12
2018-11-07T13:35:20.235Z,99058.66
2018-11-07T13:37:49.833Z,99063.05
2018-11-07T13:40:20.911Z,99062.15
2018-11-07T13:42:49.590Z,99054.23
2018-11-07T13:45:19.730Z,99065.00
2018-11-07T13:47:50.479Z,99065.75
2018-11-07T13:50:19.897Z,99080.70
2018-11-07T13:52:49.244Z,99070.34
2018-11-07T13:55:17.968Z,98914.03
2018-11-07T13:57:46.895Z,99098.64
2018-11-07T14:00:18.020Z,99102.02
2018-11-07T14:02:47.523Z,99108.16
2018-11-07T14:05:16.191Z,99101.56
2018-11-07T14:07:44.869Z,99114.29
2018-11-07T14:10:20.564Z,99119.45
2018-11-07T14:12:50.656Z,99128.11
2018-11-07T14:15:19.529Z,99126.17
2018-11-07T14:17:48.131Z,99130.80
2018-11-07T14:20:16.896Z,99135.42
2018-11-07T14:22:45.614Z,99137.54
2018-11-07T14:25:14.621Z,99136.58
2018-11-07T14:27:43.412Z,99152.45
2018-11-07T14:30:14.660Z,99147.22
2018-11-07T14:32:51.386Z,99146.66
2018-11-07T14:35:20.317Z,99159.16
2018-11-07T14:37:48.929Z,99158.85
2018-11-07T14:40:17.461Z,99155.86
2018-11-07T14:42:46.131Z,99166.66
2018-11-07T14:45:14.684Z,99153.02
2018-11-07T14:47:43.591Z,99162.48
2018-11-07T14:50:12.844Z,99158.81
2018-11-07T14:52:48.182Z,99166.64
2018-11-07T14:55:16.915Z,99161.58
2018-11-07T14:57:45.555Z,99159.17
2018-11-07T15:00:15.786Z,99157.53
2018-11-07T15:02:45.034Z,99170.97
2018-11-07T15:05:14.785Z,99169.87
2018-11-07T15:07:43.955Z,99156.44
2018-11-07T15:10:13.593Z,99168.94
2018-11-07T15:12:42.321Z,99164.39
2018-11-07T15:15:13.711Z,99158.80
2018-11-07T15:17:42.382Z,99161.59
2018-11-07T15:20:12.411Z,99158.72
2018-11-07T15:22:41.050Z,99161.99
2018-11-07T15:25:11.241Z,99159.03
2018-11-07T15:27:40.272Z,99161.84
2018-11-07T15:30:10.191Z,99184.99
2018-11-07T15:32:39.200Z,99169.16
2018-11-07T15:35:08.731Z,99175.72
2018-11-07T15:37:38.175Z,99174.46
2018-11-07T15:40:08.993Z,99181.95
2018-11-07T15:42:37.643Z,99183.12
2018-11-07T15:45:08.614Z,99185.87
2018-11-07T15:47:37.412Z,99192.39
2018-11-07T15:50:11.471Z,99193.20
2018-11-07T15:52:40.125Z,99199.83
2018-11-07T15:55:09.246Z,99202.77
2018-11-07T15:57:37.803Z,99208.87
2018-11-07T16:00:09.104Z,99212.21
2018-11-07T16:02:37.906Z,99220.33
2018-11-07T16:05:07.377Z,99216.48
2018-11-07T16:07:36.107Z,99227.54
2018-11-07T16:10:05.443Z,99231.67
2018-11-07T16:12:33.979Z,99235.55
2018-11-07T16:15:03.268Z,99228.44
2018-11-07T16:17:32.295Z,99241.07
2018-11-07T16:20:02.771Z,99242.83
2018-11-07T16:22:31.647Z,99245.92
2018-11-07T16:25:00.368Z,99243.22
2018-11-07T16:27:29.158Z,99242.84
2018-11-07T16:29:57.963Z,99254.27
2018-11-07T16:32:26.534Z,99254.36
2018-11-07T16:34:55.186Z,99249.48
2018-11-07T16:37:23.833Z,99251.61
2018-11-07T16:39:52.703Z,99251.69
2018-11-07T16:42:21.347Z,99256.45
2018-11-07T16:44:50.030Z,99267.77
2018-11-07T16:47:18.684Z,99250.44
2018-11-07T16:49:47.438Z,99250.69
2018-11-07T16:52:16.186Z,99255.05
2018-11-07T16:54:44.901Z,99265.43
2018-11-07T16:57:13.597Z,99266.02
2018-11-07T16:59:42.211Z,99268.99
2018-11-07T17:02:10.935Z,99273.45
2018-11-07T17:04:39.620Z,99268.36
2018-11-07T17:07:08.789Z,99280.34
2018-11-07T17:09:37.246Z,99286.00
2018-11-07T17:12:06.176Z,99289.75
2018-11-07T17:14:34.900Z,99288.53
2018-11-07T17:17:03.708Z,99296.98
2018-11-07T17:19:32.782Z,99297.17
2018-11-07T17:22:01.602Z,99303.95
2018-11-07T17:24:30.383Z,99295.61
2018-11-07T17:26:58.894Z,99307.19
2018-11-07T17:29:27.638Z,99306.30
2018-11-07T17:31:56.418Z,99311.67
2018-11-07T17:34:25.118Z,99308.72
2018-11-07T17:36:53.870Z,99310.93
2018-11-07T17:42:02.846Z,99319.86
2018-11-07T17:44:31.530Z,99333.45
2018-11-07T17:47:02.741Z,99329.19
2018-11-07T17:49:31.506Z,99338.53
2018-11-07T17:52:00.106Z,99327.70
2018-11-07T17:54:29.015Z,99323.66
2018-11-07T17:56:57.697Z,99330.34
2018-11-07T17:59:26.373Z,99329.91
2018-11-07T18:01:55.226Z,99332.55
2018-11-07T18:04:23.907Z,99336.02
2018-11-07T18:06:52.655Z,99335.19
2018-11-07T18:09:21.335Z,99335.88
2018-11-07T18:11:49.987Z,99290.27
2018-11-07T18:14:22.569Z,99345.47
2018-11-07T18:16:51.236Z,99351.91
2018-11-07T18:19:24.749Z,99355.34
2018-11-07T18:21:53.754Z,99358.23
2018-11-07T18:24:22.509Z,99360.78
2018-11-07T18:26:51.444Z,99362.15
2018-11-07T18:29:20.330Z,99370.21
2018-11-07T18:31:49.065Z,99370.21
2018-11-07T18:34:17.837Z,99369.50
2018-11-07T18:36:46.563Z,99376.23
2018-11-07T18:39:15.482Z,99373.23
2018-11-07T18:41:44.235Z,99381.67
2018-11-07T18:44:12.983Z,99389.20
2018-11-07T18:46:41.709Z,99388.80
2018-11-07T18:49:10.307Z,99388.75
2018-11-07T18:51:39.010Z,99388.84
2018-11-07T18:54:07.745Z,99394.08
2018-11-07T18:56:36.692Z,99400.20
2018-11-07T18:59:05.410Z,99403.31
2018-11-07T19:01:34.012Z,99403.31
2018-11-07T19:04:02.563Z,99404.68
2018-11-07T19:06:31.373Z,99400.72
2018-11-07T19:09:00.211Z,99411.19
2018-11-07T19:11:28.970Z,99409.39
2018-11-07T19:13:57.625Z,99412.44
2018-11-07T19:16:26.277Z,99415.03
2018-11-07T19:18:54.889Z,99423.34
2018-11-07T19:21:23.509Z,99423.80
2018-11-07T19:23:52.146Z,99419.67
2018-11-07T19:26:20.785Z,99424.55
2018-11-07T19:28:49.394Z,99432.38
2018-11-07T19:31:18.118Z,99433.98
2018-11-07T19:33:46.746Z,99439.60
2018-11-07T19:36:15.389Z,99438.61
2018-11-07T19:38:43.931Z,99433.67
2018-11-07T19:41:12.664Z,99441.08
2018-11-07T19:43:41.262Z,99445.52
2018-11-07T19:46:09.843Z,99442.24
2018-11-07T19:48:38.386Z,99452.37
2018-11-07T19:51:07.979Z,99450.22
2018-11-07T19:53:36.467Z,99457.74
2018-11-07T19:56:05.269Z,99456.19
2018-11-07T19:58:34.048Z,99464.39
2018-11-07T20:01:02.656Z,99464.51
2018-11-07T20:03:31.312Z,99465.47
2018-11-07T20:05:59.971Z,99463.66
2018-11-07T20:08:28.677Z,99463.83
2018-11-07T20:10:57.324Z,99467.83
2018-11-07T20:13:26.076Z,99472.30
2018-11-07T20:15:54.645Z,99477.52
2018-11-07T20:18:23.831Z,99479.31
2018-11-07T20:20:52.555Z,99477.59
2018-11-07T20:23:21.783Z,99485.11
2018-11-07T20:25:50.289Z,99490.83
2018-11-07T20:28:19.032Z,99493.98
2018-11-07T20:30:47.549Z,99500.02
2018-11-07T20:33:16.957Z,99500.02
2018-11-07T20:35:45.640Z,99506.22
2018-11-07T20:38:14.195Z,99505.79
2018-11-07T20:40:42.900Z,99511.06
2018-11-07T20:43:11.499Z,99516.98
2018-11-07T20:45:40.214Z,99515.66
2018-11-07T20:48:08.885Z,99518.70
2018-11-07T20:50:37.517Z,99518.34
2018-11-07T20:53:06.234Z,99518.81
2018-11-07T20:55:34.794Z,99524.18
2018-11-07T20:58:03.372Z,99526.33
2018-11-07T21:00:31.941Z,99529.89
2018-11-07T21:03:00.564Z,99530.38
2018-11-07T21:05:29.164Z,99530.84
2018-11-07T21:07:57.777Z,99536.13
2018-11-07T21:10:26.315Z,99536.20
2018-11-07T21:12:54.935Z,99534.56
2018-11-07T21:15:23.772Z,99543.39
2018-11-07T21:17:52.480Z,99544.91
2018-11-07T21:20:21.225Z,99546.66
2018-11-07T21:22:49.919Z,99546.38
2018-11-07T21:25:18.568Z,99542.97
2018-11-07T21:27:47.136Z,99542.59
2018-11-07T21:30:15.929Z,99544.80
2018-11-07T21:32:44.873Z,99543.59
2018-11-07T21:35:13.626Z,99553.22
2018-11-07T21:37:42.176Z,99557.66
2018-11-07T21:40:15.210Z,99558.14
2018-11-07T21:42:44.023Z,99562.94
2018-11-07T21:45:13.460Z,99567.88
2018-11-07T21:47:42.894Z,99566.59
2018-11-07T21:50:13.059Z,99570.66
2018-11-07T21:52:41.826Z,99573.05
2018-11-07T21:55:10.484Z,99579.20
2018-11-07T21:57:39.804Z,99584.05
2018-11-07T22:00:10.635Z,99439.25
2018-11-07T22:02:39.332Z,99577.45
2018-11-07T22:05:08.612Z,99580.66
2018-11-07T22:07:37.315Z,99586.34
2018-11-07T22:10:06.568Z,99585.98
2018-11-07T22:12:35.343Z,99591.30
2018-11-07T22:15:03.945Z,99591.80
2018-11-07T22:17:32.707Z,99549.23
2018-11-07T22:20:01.564Z,99598.84
2018-11-07T22:22:30.157Z,99600.27
2018-11-07T22:24:58.868Z,99591.95
2018-11-07T22:27:27.546Z,99598.53
2018-11-07T22:29:56.130Z,99605.27
2018-11-07T22:32:24.710Z,99604.46
2018-11-07T22:34:53.336Z,99605.81
2018-11-07T22:37:21.886Z,99603.22
2018-11-07T22:39:50.517Z,99602.91
2018-11-07T22:42:19.050Z,99604.84
2018-11-07T22:44:47.635Z,99614.10
2018-11-07T22:47:16.266Z,99616.77
2018-11-07T22:49:44.865Z,99617.72
2018-11-07T22:52:13.423Z,99612.95
2018-11-07T22:54:42.034Z,99614.38
2018-11-07T22:57:10.643Z,99628.50
2018-11-07T22:59:39.221Z,99630.32
2018-11-07T23:02:07.866Z,99630.80
2018-11-07T23:04:36.471Z,99633.97
2018-11-07T23:07:05.030Z,99639.23
2018-11-07T23:09:33.689Z,99640.19
2018-11-07T23:12:02.306Z,99638.48
2018-11-07T23:14:30.893Z,99636.83
2018-11-07T23:16:59.463Z,99635.45
2018-11-07T23:19:28.122Z,99637.27
2018-11-07T23:21:56.716Z,99647.81
2018-11-07T23:24:25.409Z,99648.34
2018-11-07T23:26:54.069Z,99656.63
2018-11-07T23:29:22.600Z,99658.48
2018-11-07T23:31:51.112Z,99653.65
2018-11-07T23:34:19.645Z,99655.81
2018-11-07T23:36:48.244Z,99662.84
2018-11-07T23:39:16.763Z,99658.48
2018-11-07T23:41:45.438Z,99658.92
2018-11-07T23:44:13.964Z,99660.36
2018-11-07T23:46:42.545Z,99675.30
2018-11-07T23:49:11.013Z,99677.99
2018-11-07T23:51:48.441Z,99683.00
2018-11-07T23:54:18.523Z,99678.17
2018-11-07T23:56:47.096Z,99674.38
2018-11-07T23:59:15.698Z,99681.05
